createdAt,value
2023-12-04T00:00:19.856Z,0.00
2023-12-04T00:01:19.805Z,0.00
2023-12-04T00:02:19.790Z,0.00
2023-12-04T00:03:19.790Z,0.00
2023-12-04T00:04:19.849Z,0.00
2023-12-04T00:05:19.827Z,0.00
2023-12-04T00:06:19.775Z,0.00
2023-12-04T00:07:19.730Z,0.00
2023-12-04T00:08:19.728Z,0.00
2023-12-04T00:09:19.711Z,0.00
2023-12-04T00:10:19.773Z,0.00
2023-12-04T00:11:19.706Z,0.00
2023-12-04T00:12:19.678Z,0.00
2023-12-04T00:13:19.668Z,0.00
2023-12-04T00:14:19.694Z,0.00
2023-12-04T00:15:19.645Z,0.00
2023-12-04T00:16:19.669Z,0.00
2023-12-04T00:17:19.707Z,0.00
2023-12-04T00:18:19.688Z,0.00
2023-12-04T00:19:19.628Z,0.00
2023-12-04T00:20:19.609Z,0.00
2023-12-04T00:21:19.607Z,0.00
2023-12-04T00:22:19.582Z,0.00
2023-12-04T00:23:19.631Z,0.00
2023-12-04T00:24:19.564Z,0.00
2023-12-04T00:25:19.544Z,0.00
2023-12-04T00:26:19.565Z,0.00
2023-12-04T00:27:19.525Z,0.00
2023-12-04T00:28:19.506Z,0.00
2023-12-04T00:29:19.504Z,0.00
2023-12-04T00:30:19.497Z,0.00
2023-12-04T00:31:19.523Z,0.00
2023-12-04T00:32:19.475Z,0.00
2023-12-04T00:33:19.488Z,0.00
2023-12-04T00:34:19.642Z,0.00
2023-12-04T00:35:19.436Z,0.00
2023-12-04T00:36:19.421Z,0.00
2023-12-04T00:37:19.438Z,0.00
2023-12-04T00:38:19.406Z,0.00
2023-12-04T00:39:19.396Z,0.00
2023-12-04T00:40:19.450Z,0.00
2023-12-04T00:41:19.379Z,0.00
2023-12-04T00:42:19.363Z,0.00
2023-12-04T00:43:19.388Z,0.00
2023-12-04T00:44:19.354Z,0.00
2023-12-04T00:45:19.329Z,0.00
2023-12-04T00:46:19.332Z,0.00
2023-12-04T00:47:19.360Z,0.00
2023-12-04T00:48:19.434Z,0.00
2023-12-04T00:49:19.453Z,0.00
2023-12-04T00:50:19.283Z,0.00
2023-12-04T00:51:19.270Z,0.00
2023-12-04T00:52:19.260Z,0.00
2023-12-04T00:53:19.322Z,0.00
2023-12-04T00:54:19.248Z,0.00
2023-12-04T00:55:19.223Z,0.00
2023-12-04T00:56:19.217Z,0.00
2023-12-04T00:58:19.202Z,0.00
2023-12-04T00:59:19.218Z,0.00
2023-12-04T01:00:19.170Z,0.00
2023-12-04T01:01:20.002Z,0.00
2023-12-04T01:02:19.148Z,0.00
2023-12-04T01:03:19.163Z,0.00
2023-12-04T01:04:19.167Z,0.00
2023-12-04T01:05:19.117Z,0.00
2023-12-04T01:06:19.112Z,0.00
2023-12-04T01:07:19.092Z,0.00
2023-12-04T01:08:19.093Z,0.00
2023-12-04T01:09:19.112Z,0.00
2023-12-04T01:10:19.075Z,0.00
2023-12-04T01:11:19.058Z,0.00
2023-12-04T01:12:19.060Z,0.00
2023-12-04T01:13:19.029Z,0.00
2023-12-04T01:14:19.038Z,0.00
2023-12-04T01:15:19.126Z,0.00
2023-12-04T01:16:19.003Z,0.00
2023-12-04T01:17:18.985Z,0.00
2023-12-04T01:18:19.107Z,0.00
2023-12-04T01:19:19.043Z,0.00
2023-12-04T01:20:18.956Z,0.00
2023-12-04T01:21:18.951Z,0.00
2023-12-04T01:22:18.945Z,0.00
2023-12-04T01:23:18.960Z,0.00
2023-12-04T01:24:18.950Z,0.00
2023-12-04T01:25:18.906Z,0.00
2023-12-04T01:26:18.897Z,0.00
2023-12-04T01:27:18.893Z,0.00
2023-12-04T01:28:18.876Z,0.00
2023-12-04T01:29:18.898Z,0.00
2023-12-04T01:30:18.882Z,0.00
2023-12-04T01:31:18.835Z,0.00
2023-12-04T01:32:18.825Z,0.00
2023-12-04T01:33:18.858Z,0.00
2023-12-04T01:34:18.861Z,0.00
2023-12-04T01:35:18.827Z,0.00
2023-12-04T01:36:19.750Z,0.00
2023-12-04T01:37:18.792Z,0.00
2023-12-04T01:38:18.780Z,0.00
2023-12-04T01:39:18.762Z,0.00
2023-12-04T01:40:18.747Z,0.00
2023-12-04T01:41:18.756Z,0.00
2023-12-04T01:42:18.724Z,0.00
2023-12-04T01:43:18.710Z,0.00
2023-12-04T01:44:18.734Z,0.00
2023-12-04T01:45:18.695Z,0.00
2023-12-04T01:46:18.678Z,0.00
2023-12-04T01:47:18.690Z,0.00
2023-12-04T01:48:18.731Z,0.00
2023-12-04T01:49:18.689Z,0.00
2023-12-04T01:50:18.646Z,0.00
2023-12-04T01:51:18.639Z,0.00
2023-12-04T01:52:18.621Z,0.00
2023-12-04T01:53:18.631Z,0.00
2023-12-04T01:54:18.600Z,0.00
2023-12-04T01:55:18.584Z,0.00
2023-12-04T01:56:18.580Z,0.00
2023-12-04T01:57:18.563Z,0.00
2023-12-04T01:58:18.557Z,0.00
2023-12-04T01:59:18.582Z,0.00
2023-12-04T02:00:18.561Z,0.00
2023-12-04T02:01:18.520Z,0.00
2023-12-04T02:02:18.519Z,0.00
2023-12-04T02:03:18.566Z,0.00
2023-12-04T02:04:18.594Z,0.00
2023-12-04T02:05:18.499Z,0.00
2023-12-04T02:06:18.488Z,0.00
2023-12-04T02:07:18.461Z,0.00
2023-12-04T02:08:18.485Z,0.00
2023-12-04T02:09:18.553Z,0.00
2023-12-04T02:10:18.436Z,0.00
2023-12-04T02:11:18.418Z,0.00
2023-12-04T02:12:18.442Z,0.00
2023-12-04T02:13:18.398Z,0.00
2023-12-04T02:14:18.417Z,0.00
2023-12-04T02:15:18.386Z,0.00
2023-12-04T02:16:18.375Z,0.00
2023-12-04T02:17:18.359Z,0.00
2023-12-04T02:18:18.386Z,0.00
2023-12-04T02:19:18.430Z,0.00
2023-12-04T02:20:18.372Z,0.00
2023-12-04T02:21:18.314Z,0.00
2023-12-04T02:22:18.303Z,0.00
2023-12-04T02:23:18.295Z,0.00
2023-12-04T02:24:18.395Z,0.00
2023-12-04T02:25:26.584Z,0.00
2023-12-04T02:26:18.301Z,0.00
2023-12-04T02:27:18.250Z,0.00
2023-12-04T02:28:18.336Z,0.00
2023-12-04T02:29:18.260Z,0.00
2023-12-04T02:30:18.245Z,0.00
2023-12-04T02:31:18.276Z,0.00
2023-12-04T02:32:18.318Z,0.00
2023-12-04T02:33:18.214Z,0.00
2023-12-04T02:34:18.370Z,0.00
2023-12-04T02:35:18.329Z,0.00
2023-12-04T02:36:18.155Z,0.00
2023-12-04T02:37:18.145Z,0.00
2023-12-04T02:38:18.130Z,0.00
2023-12-04T02:39:18.131Z,0.00
2023-12-04T02:40:18.185Z,0.00
2023-12-04T02:41:18.110Z,0.00
2023-12-04T02:42:18.098Z,0.00
2023-12-04T02:43:18.079Z,0.00
2023-12-04T02:44:18.067Z,0.00
2023-12-04T02:45:18.062Z,0.00
2023-12-04T02:46:18.079Z,0.00
2023-12-04T02:47:18.040Z,0.00
2023-12-04T02:48:18.106Z,0.00
2023-12-04T02:49:18.063Z,0.00
2023-12-04T02:50:18.004Z,0.00
2023-12-04T02:51:18.008Z,0.00
2023-12-04T02:52:18.022Z,0.00
2023-12-04T02:53:17.985Z,0.00
2023-12-04T02:54:17.960Z,0.00
2023-12-04T02:55:17.953Z,0.00
2023-12-04T02:56:17.965Z,0.00
2023-12-04T02:57:17.958Z,0.00
2023-12-04T02:58:17.941Z,0.00
2023-12-04T02:59:17.911Z,0.00
2023-12-04T03:00:17.893Z,0.00
2023-12-04T03:01:17.894Z,0.00
2023-12-04T03:02:17.878Z,0.00
2023-12-04T03:03:17.944Z,0.00
2023-12-04T03:04:17.902Z,0.00
2023-12-04T03:05:17.859Z,0.00
2023-12-04T03:06:17.902Z,0.00
2023-12-04T03:07:17.829Z,0.00
2023-12-04T03:08:17.813Z,0.00
2023-12-04T03:09:17.847Z,0.00
2023-12-04T03:10:17.833Z,0.00
2023-12-04T03:11:17.782Z,0.00
2023-12-04T03:12:17.802Z,0.00
2023-12-04T03:13:17.790Z,0.00
2023-12-04T03:14:17.747Z,0.00
2023-12-04T03:15:17.736Z,0.00
2023-12-04T03:16:17.752Z,0.00
2023-12-04T03:17:17.714Z,0.00
2023-12-04T03:18:17.792Z,0.00
2023-12-04T03:19:17.794Z,0.00
2023-12-04T03:20:17.702Z,0.00
2023-12-04T03:21:17.686Z,0.00
2023-12-04T03:22:17.704Z,0.00
2023-12-04T03:23:17.652Z,0.00
2023-12-04T03:24:17.666Z,0.00
2023-12-04T03:25:17.679Z,0.00
2023-12-04T03:26:17.644Z,0.00
2023-12-04T03:27:17.603Z,0.00
2023-12-04T03:28:17.613Z,0.00
2023-12-04T03:29:17.583Z,0.00
2023-12-04T03:30:17.622Z,0.00
2023-12-04T03:31:17.576Z,0.00
2023-12-04T03:32:17.549Z,0.00
2023-12-04T03:33:17.641Z,0.00
2023-12-04T03:34:17.598Z,0.00
2023-12-04T03:35:17.554Z,0.00
2023-12-04T03:36:17.528Z,0.00
2023-12-04T03:37:17.551Z,0.00
2023-12-04T03:38:17.490Z,0.00
2023-12-04T03:39:17.484Z,0.00
2023-12-04T03:40:17.534Z,0.00
2023-12-04T03:41:17.475Z,0.00
2023-12-04T03:42:17.440Z,0.00
2023-12-04T03:43:17.514Z,0.00
2023-12-04T03:44:17.454Z,0.00
2023-12-04T03:45:17.406Z,0.00
2023-12-04T03:46:19.143Z,0.00
2023-12-04T03:47:17.389Z,0.00
2023-12-04T03:48:17.454Z,0.00
2023-12-04T03:49:17.426Z,0.00
2023-12-04T03:50:17.376Z,0.00
2023-12-04T03:51:17.346Z,0.00
2023-12-04T03:52:17.382Z,0.00
2023-12-04T03:53:17.323Z,0.00
2023-12-04T03:54:17.316Z,0.00
2023-12-04T03:55:17.342Z,0.00
2023-12-04T03:56:17.313Z,0.00
2023-12-04T03:57:17.291Z,0.00
2023-12-04T03:58:17.306Z,0.00
2023-12-04T03:59:17.253Z,0.00
2023-12-04T04:00:17.253Z,0.00
2023-12-04T04:01:17.293Z,0.00
2023-12-04T04:02:17.250Z,0.00
2023-12-04T04:03:17.257Z,0.00
2023-12-04T04:04:17.237Z,0.00
2023-12-04T04:05:17.192Z,0.00
2023-12-04T04:06:17.178Z,0.00
2023-12-04T04:07:17.260Z,0.00
2023-12-04T04:08:17.181Z,0.00
2023-12-04T04:09:17.143Z,0.00
2023-12-04T04:10:17.204Z,0.00
2023-12-04T04:11:17.125Z,0.00
2023-12-04T04:12:17.114Z,0.00
2023-12-04T04:13:17.133Z,0.00
2023-12-04T04:14:17.119Z,0.00
2023-12-04T04:15:17.145Z,0.00
2023-12-04T04:16:17.119Z,0.00
2023-12-04T04:17:17.058Z,0.00
2023-12-04T04:18:17.133Z,0.00
2023-12-04T04:19:17.202Z,0.00
2023-12-04T04:20:17.037Z,0.00
2023-12-04T04:21:17.015Z,0.00
2023-12-04T04:22:17.027Z,0.00
2023-12-04T04:23:16.994Z,0.00
2023-12-04T04:24:17.014Z,0.00
2023-12-04T04:25:17.024Z,0.00
2023-12-04T04:26:16.964Z,0.00
2023-12-04T04:27:16.945Z,0.00
2023-12-04T04:28:16.937Z,0.00
2023-12-04T04:29:16.933Z,0.00
2023-12-04T04:30:16.940Z,0.00
2023-12-04T04:31:16.974Z,0.00
2023-12-04T04:32:23.863Z,0.00
2023-12-04T04:33:16.946Z,0.00
2023-12-04T04:34:16.964Z,0.00
2023-12-04T04:35:16.872Z,0.00
2023-12-04T04:36:16.917Z,0.00
2023-12-04T04:37:16.906Z,0.00
2023-12-04T04:38:16.873Z,0.00
2023-12-04T04:39:16.811Z,0.00
2023-12-04T04:40:16.836Z,0.00
2023-12-04T04:41:16.807Z,0.00
2023-12-04T04:42:16.809Z,0.00
2023-12-04T04:43:16.802Z,0.00
2023-12-04T04:44:16.764Z,0.00
2023-12-04T04:45:16.757Z,0.00
2023-12-04T04:46:16.930Z,0.00
2023-12-04T04:47:16.745Z,0.00
2023-12-04T04:48:16.801Z,0.00
2023-12-04T04:49:16.828Z,0.00
2023-12-04T04:50:16.700Z,0.00
2023-12-04T04:51:16.690Z,0.00
2023-12-04T04:52:16.679Z,0.00
2023-12-04T04:53:16.667Z,0.00
2023-12-04T04:54:16.694Z,0.00
2023-12-04T04:55:45.914Z,0.00
2023-12-04T04:56:16.643Z,0.00
2023-12-04T04:57:16.619Z,0.00
2023-12-04T04:58:16.625Z,0.00
2023-12-04T04:59:16.609Z,0.00
2023-12-04T05:00:16.619Z,0.00
2023-12-04T05:01:16.627Z,0.00
2023-12-04T05:02:16.575Z,0.00
2023-12-04T05:03:16.602Z,0.00
2023-12-04T05:04:16.619Z,0.00
2023-12-04T05:05:16.542Z,0.00
2023-12-04T05:06:16.586Z,0.00
2023-12-04T05:07:16.537Z,0.00
2023-12-04T05:08:16.506Z,0.00
2023-12-04T05:09:16.517Z,0.00
2023-12-04T05:10:16.514Z,0.00
2023-12-04T05:11:16.466Z,0.00
2023-12-04T05:12:16.464Z,0.00
2023-12-04T05:13:16.485Z,0.00
2023-12-04T05:14:16.435Z,0.00
2023-12-04T05:15:16.454Z,0.00
2023-12-04T05:16:16.463Z,0.00
2023-12-04T05:17:16.401Z,0.00
2023-12-04T05:18:16.400Z,0.00
2023-12-04T05:19:16.466Z,0.00
2023-12-04T05:20:16.399Z,0.00
2023-12-04T05:21:16.394Z,0.00
2023-12-04T05:22:16.386Z,0.00
2023-12-04T05:23:16.333Z,0.00
2023-12-04T05:24:16.330Z,0.00
2023-12-04T05:25:16.351Z,0.00
2023-12-04T05:26:16.315Z,0.00
2023-12-04T05:27:16.334Z,0.00
2023-12-04T05:28:16.333Z,0.00
2023-12-04T05:29:16.277Z,0.00
2023-12-04T05:30:16.273Z,0.00
2023-12-04T05:31:16.291Z,0.00
2023-12-04T05:32:16.277Z,0.00
2023-12-04T05:33:16.305Z,0.00
2023-12-04T05:34:16.266Z,0.00
2023-12-04T05:35:16.209Z,0.00
2023-12-04T05:36:16.201Z,0.00
2023-12-04T05:37:16.188Z,0.00
2023-12-04T05:38:16.206Z,0.00
2023-12-04T05:39:16.165Z,0.00
2023-12-04T05:40:16.214Z,0.00
2023-12-04T05:41:16.145Z,0.00
2023-12-04T05:42:16.141Z,0.00
2023-12-04T05:43:16.218Z,0.00
2023-12-04T05:44:16.145Z,0.00
2023-12-04T05:45:16.183Z,0.00
2023-12-04T05:46:16.142Z,0.00
2023-12-04T05:47:16.078Z,0.00
2023-12-04T05:48:16.069Z,0.00
2023-12-04T05:49:16.139Z,0.00
2023-12-04T05:50:16.078Z,0.00
2023-12-04T05:51:16.045Z,0.00
2023-12-04T05:52:16.109Z,0.00
2023-12-04T05:53:16.017Z,0.00
2023-12-04T05:54:16.022Z,0.00
2023-12-04T05:55:16.055Z,0.00
2023-12-04T05:56:15.994Z,0.00
2023-12-04T05:57:15.979Z,0.00
2023-12-04T05:58:16.021Z,0.00
2023-12-04T05:59:15.971Z,0.00
2023-12-04T06:00:15.955Z,0.00
2023-12-04T06:01:15.988Z,0.00
2023-12-04T06:02:16.002Z,0.00
2023-12-04T06:03:15.931Z,0.00
2023-12-04T06:04:15.988Z,0.00
2023-12-04T06:05:15.952Z,0.00
2023-12-04T06:06:15.888Z,0.00
2023-12-04T06:07:15.912Z,0.00
2023-12-04T06:08:15.877Z,0.00
2023-12-04T06:09:15.859Z,0.00
2023-12-04T06:10:15.923Z,0.00
2023-12-04T06:11:15.838Z,0.00
2023-12-04T06:12:15.837Z,0.00
2023-12-04T06:13:15.949Z,0.00
2023-12-04T06:14:15.806Z,0.00
2023-12-04T06:15:15.797Z,0.00
2023-12-04T06:16:15.834Z,0.00
2023-12-04T06:17:15.778Z,0.00
2023-12-04T06:18:15.829Z,0.00
2023-12-04T06:19:15.842Z,0.00
2023-12-04T06:20:15.763Z,0.00
2023-12-04T06:21:15.737Z,0.00
2023-12-04T06:22:15.789Z,0.00
2023-12-04T06:23:15.727Z,0.00
2023-12-04T06:24:15.710Z,0.00
2023-12-04T06:25:15.723Z,0.00
2023-12-04T06:26:15.697Z,0.00
2023-12-04T06:27:15.674Z,0.00
2023-12-04T06:28:15.787Z,0.00
2023-12-04T06:29:15.655Z,0.00
2023-12-04T06:30:15.676Z,0.00
2023-12-04T06:31:15.674Z,0.00
2023-12-04T06:32:15.665Z,0.00
2023-12-04T06:33:15.610Z,0.00
2023-12-04T06:34:15.674Z,0.00
2023-12-04T06:35:17.693Z,0.00
2023-12-04T06:36:15.588Z,0.00
2023-12-04T06:37:15.637Z,0.00
2023-12-04T06:38:15.577Z,0.00
2023-12-04T06:39:15.546Z,0.00
2023-12-04T06:40:15.542Z,0.00
2023-12-04T06:41:15.519Z,0.00
2023-12-04T06:42:15.518Z,0.00
2023-12-04T06:43:15.531Z,0.00
2023-12-04T06:44:15.524Z,0.00
2023-12-04T06:45:15.496Z,0.00
2023-12-04T06:46:15.499Z,4.00
2023-12-04T06:47:15.462Z,4.00
2023-12-04T06:48:15.498Z,4.00
2023-12-04T06:49:15.552Z,0.00
2023-12-04T06:50:15.453Z,4.00
2023-12-04T06:51:15.413Z,4.00
2023-12-04T06:52:15.483Z,8.00
2023-12-04T06:53:15.397Z,4.00
2023-12-04T06:54:15.384Z,8.00
2023-12-04T06:55:15.411Z,8.00
2023-12-04T06:56:18.308Z,8.00
2023-12-04T06:57:15.364Z,12.00
2023-12-04T06:58:15.527Z,12.00
2023-12-04T06:59:15.326Z,16.00
2023-12-04T07:00:21.285Z,16.00
2023-12-04T07:01:15.469Z,20.00
2023-12-04T07:02:15.302Z,20.00
2023-12-04T07:03:15.291Z,24.00
2023-12-04T07:04:15.396Z,24.00
2023-12-04T07:05:15.297Z,32.00
2023-12-04T07:06:15.254Z,32.00
2023-12-04T07:07:15.330Z,40.00
2023-12-04T07:08:15.234Z,44.00
2023-12-04T07:09:15.231Z,52.00
2023-12-04T07:10:15.269Z,52.00
2023-12-04T07:11:15.206Z,60.00
2023-12-04T07:12:15.241Z,64.00
2023-12-04T07:13:15.223Z,72.00
2023-12-04T07:14:15.319Z,80.00
2023-12-04T07:15:15.226Z,88.00
2023-12-04T07:16:15.207Z,92.00
2023-12-04T07:17:15.136Z,104.00
2023-12-04T07:18:15.294Z,108.00
2023-12-04T07:19:15.224Z,124.00
2023-12-04T07:20:15.105Z,128.00
2023-12-04T07:21:15.104Z,140.00
2023-12-04T07:22:15.203Z,148.00
2023-12-04T07:23:15.077Z,160.00
2023-12-04T07:24:15.123Z,168.00
2023-12-04T07:25:15.126Z,184.00
2023-12-04T07:26:15.053Z,200.00
2023-12-04T07:27:15.033Z,212.00
2023-12-04T07:28:15.112Z,224.00
2023-12-04T07:29:15.017Z,236.00
2023-12-04T07:30:16.425Z,244.00
2023-12-04T07:31:15.038Z,256.00
2023-12-04T07:32:14.978Z,260.00
2023-12-04T07:33:15.054Z,264.00
2023-12-04T07:34:15.365Z,272.00
2023-12-04T07:35:14.970Z,280.00
2023-12-04T07:36:14.963Z,288.00
2023-12-04T07:37:14.993Z,296.00
2023-12-04T07:38:14.938Z,308.00
2023-12-04T07:39:14.914Z,332.00
2023-12-04T07:40:14.969Z,356.00
2023-12-04T07:41:14.911Z,388.00
2023-12-04T07:42:14.902Z,420.00
2023-12-04T07:43:14.870Z,456.00
2023-12-04T07:44:14.852Z,492.00
2023-12-04T07:45:14.859Z,528.00
2023-12-04T07:46:14.872Z,556.00
2023-12-04T07:47:14.832Z,584.00
2023-12-04T07:48:14.906Z,608.00
2023-12-04T07:49:14.860Z,632.00
2023-12-04T07:50:14.796Z,652.00
2023-12-04T07:51:14.798Z,672.00
2023-12-04T07:52:14.821Z,696.00
2023-12-04T07:53:14.755Z,724.00
2023-12-04T07:54:14.770Z,760.00
2023-12-04T07:55:14.790Z,788.00
2023-12-04T07:56:14.729Z,812.00
2023-12-04T07:57:14.727Z,824.00
2023-12-04T07:58:14.743Z,840.00
2023-12-04T07:59:14.690Z,856.00
2023-12-04T08:00:14.706Z,872.00
2023-12-04T08:01:14.693Z,892.00
2023-12-04T08:02:14.678Z,916.00
2023-12-04T08:03:14.681Z,936.00
2023-12-04T08:04:14.794Z,960.00
2023-12-04T08:05:14.699Z,984.00
2023-12-04T08:06:14.670Z,1000.00
2023-12-04T08:07:14.616Z,1020.00
2023-12-04T08:08:14.590Z,1044.00
2023-12-04T08:09:14.594Z,1060.00
2023-12-04T08:10:14.591Z,1072.00
2023-12-04T08:11:14.585Z,1080.00
2023-12-04T08:12:14.598Z,1096.00
2023-12-04T08:13:14.569Z,1112.00
2023-12-04T08:14:14.535Z,1136.00
2023-12-04T08:15:14.545Z,1168.00
2023-12-04T08:16:14.582Z,1212.00
2023-12-04T08:17:14.527Z,1256.00
2023-12-04T08:18:14.519Z,1304.00
2023-12-04T08:19:14.585Z,1360.00
2023-12-04T08:20:19.622Z,1420.00
2023-12-04T08:21:14.597Z,1488.00
2023-12-04T08:22:14.477Z,1564.00
2023-12-04T08:23:14.471Z,1644.00
2023-12-04T08:24:14.453Z,1716.00
2023-12-04T08:25:14.452Z,1796.00
2023-12-04T08:26:14.413Z,1864.00
2023-12-04T08:27:14.400Z,1920.00
2023-12-04T08:28:14.453Z,1972.00
2023-12-04T08:29:14.392Z,2016.00
2023-12-04T08:30:14.365Z,2060.00
2023-12-04T08:31:14.408Z,2104.00
2023-12-04T08:32:14.360Z,2144.00
2023-12-04T08:33:14.375Z,2188.00
2023-12-04T08:34:14.421Z,2240.00
2023-12-04T08:35:14.316Z,2308.00
2023-12-04T08:36:14.341Z,2376.00
2023-12-04T08:37:14.354Z,2448.00
2023-12-04T08:38:14.483Z,2524.00
2023-12-04T08:39:14.316Z,2596.00
2023-12-04T08:40:14.308Z,2652.00
2023-12-04T08:41:14.251Z,2692.00
2023-12-04T08:42:21.009Z,2720.00
2023-12-04T08:43:14.276Z,2736.00
2023-12-04T08:44:14.273Z,2748.00
2023-12-04T08:45:14.922Z,2760.00
2023-12-04T08:46:14.265Z,2768.00
2023-12-04T08:47:14.186Z,2784.00
2023-12-04T08:48:14.177Z,2804.00
2023-12-04T08:49:14.214Z,2832.00
2023-12-04T08:50:14.193Z,2856.00
2023-12-04T08:51:14.146Z,2888.00
2023-12-04T08:52:14.191Z,2924.00
2023-12-04T08:53:14.126Z,2956.00
2023-12-04T08:54:17.912Z,2976.00
2023-12-04T08:55:14.197Z,2988.00
2023-12-04T08:56:19.358Z,3004.00
2023-12-04T08:57:14.123Z,3036.00
2023-12-04T08:58:14.152Z,3084.00
2023-12-04T08:59:14.131Z,3140.00
2023-12-04T09:00:14.066Z,3212.00
2023-12-04T09:01:14.120Z,3288.00
2023-12-04T09:02:15.257Z,3352.00
2023-12-04T09:03:18.882Z,3404.00
2023-12-04T09:04:14.188Z,3452.00
2023-12-04T09:05:14.378Z,3488.00
2023-12-04T09:06:14.096Z,3520.00
2023-12-04T09:08:27.943Z,3544.00
2023-12-04T09:08:45.532Z,3564.00
2023-12-04T09:09:14.675Z,3576.00
2023-12-04T09:10:17.508Z,3572.00
2023-12-04T09:11:21.097Z,3572.00
2023-12-04T09:12:13.916Z,3572.00
2023-12-04T09:13:13.931Z,3572.00
2023-12-04T09:14:13.895Z,3576.00
2023-12-04T09:15:13.931Z,3572.00
2023-12-04T09:16:13.876Z,3568.00
2023-12-04T09:17:13.906Z,3576.00
2023-12-04T09:18:14.527Z,3576.00
2023-12-04T09:19:13.978Z,3572.00
2023-12-04T09:20:13.911Z,3596.00
2023-12-04T09:21:13.832Z,3656.00
2023-12-04T09:22:19.217Z,3748.00
2023-12-04T09:23:13.809Z,3836.00
2023-12-04T09:24:13.831Z,3896.00
2023-12-04T09:25:13.796Z,3936.00
2023-12-04T09:26:13.784Z,3964.00
2023-12-04T09:27:13.781Z,3996.00
2023-12-04T09:28:13.788Z,4032.00
2023-12-04T09:29:13.788Z,4072.00
2023-12-04T09:30:13.796Z,4124.00
2023-12-04T09:31:13.755Z,4184.00
2023-12-04T09:32:13.744Z,4228.00
2023-12-04T09:33:13.777Z,4264.00
2023-12-04T09:34:13.704Z,4284.00
2023-12-04T09:35:13.680Z,4280.00
2023-12-04T09:36:13.677Z,4264.00
2023-12-04T09:37:14.167Z,4260.00
2023-12-04T09:38:13.718Z,4260.00
2023-12-04T09:39:13.714Z,4252.00
2023-12-04T09:40:13.654Z,4244.00
2023-12-04T09:41:13.618Z,4232.00
2023-12-04T09:42:13.629Z,4220.00
2023-12-04T09:43:13.676Z,4212.00
2023-12-04T09:44:13.577Z,4204.00
2023-12-04T09:45:13.587Z,4208.00
2023-12-04T09:46:13.583Z,4196.00
2023-12-04T09:47:13.588Z,4176.00
2023-12-04T09:48:13.696Z,4144.00
2023-12-04T09:49:13.747Z,4112.00
2023-12-04T09:50:13.797Z,4072.00
2023-12-04T09:51:13.538Z,4032.00
2023-12-04T09:52:13.527Z,3992.00
2023-12-04T09:53:13.483Z,3964.00
2023-12-04T09:54:13.528Z,3960.00
2023-12-04T09:55:13.462Z,3992.00
2023-12-04T09:56:13.455Z,4052.00
2023-12-04T09:57:13.452Z,4120.00
2023-12-04T09:58:13.424Z,4184.00
2023-12-04T09:59:13.423Z,4248.00
2023-12-04T10:00:13.516Z,4308.00
2023-12-04T10:01:13.472Z,4356.00
2023-12-04T10:02:13.816Z,4396.00
2023-12-04T10:03:13.437Z,4440.00
2023-12-04T10:04:13.371Z,4468.00
2023-12-04T10:05:13.432Z,4496.00
2023-12-04T10:06:13.348Z,4532.00
2023-12-04T10:07:13.331Z,4560.00
2023-12-04T10:08:13.330Z,4580.00
2023-12-04T10:09:13.348Z,4584.00
2023-12-04T10:10:13.332Z,4584.00
2023-12-04T10:11:13.289Z,4580.00
2023-12-04T10:12:13.315Z,4564.00
2023-12-04T10:13:13.363Z,4552.00
2023-12-04T10:14:13.335Z,4548.00
2023-12-04T10:15:13.297Z,4556.00
2023-12-04T10:16:13.258Z,4560.00
2023-12-04T10:17:13.241Z,4556.00
2023-12-04T10:18:13.314Z,4556.00
2023-12-04T10:19:13.313Z,4552.00
2023-12-04T10:20:13.234Z,4544.00
2023-12-04T10:21:19.540Z,4516.00
2023-12-04T10:22:13.184Z,4472.00
2023-12-04T10:23:13.172Z,4420.00
2023-12-04T10:24:13.195Z,4364.00
2023-12-04T10:25:13.165Z,4308.00
2023-12-04T10:26:13.126Z,4276.00
2023-12-04T10:27:13.449Z,4264.00
2023-12-04T10:28:13.156Z,4276.00
2023-12-04T10:29:13.099Z,4296.00
2023-12-04T10:30:13.137Z,4304.00
2023-12-04T10:31:13.075Z,4328.00
2023-12-04T10:32:13.111Z,4360.00
2023-12-04T10:33:13.179Z,4400.00
2023-12-04T10:34:13.109Z,4444.00
2023-12-04T10:35:13.046Z,4484.00
2023-12-04T10:36:13.150Z,4516.00
2023-12-04T10:37:13.062Z,4540.00
2023-12-04T10:38:13.002Z,4548.00
2023-12-04T10:39:13.001Z,4540.00
2023-12-04T10:40:12.982Z,4528.00
2023-12-04T10:41:12.980Z,4512.00
2023-12-04T10:42:13.042Z,4500.00
2023-12-04T10:43:12.959Z,4500.00
2023-12-04T10:44:12.941Z,4504.00
2023-12-04T10:45:12.932Z,4488.00
2023-12-04T10:46:12.926Z,4452.00
2023-12-04T10:47:12.906Z,4412.00
2023-12-04T10:48:13.120Z,4388.00
2023-12-04T10:49:12.967Z,4384.00
2023-12-04T10:50:12.875Z,4408.00
2023-12-04T10:51:12.903Z,4440.00
2023-12-04T10:52:12.850Z,4476.00
2023-12-04T10:53:12.846Z,4484.00
2023-12-04T10:54:12.917Z,4472.00
2023-12-04T10:55:12.823Z,4440.00
2023-12-04T10:56:12.807Z,4380.00
2023-12-04T10:57:12.840Z,4308.00
2023-12-04T10:58:12.799Z,4264.00
2023-12-04T10:59:12.776Z,4260.00
2023-12-04T11:00:12.895Z,4288.00
2023-12-04T11:01:12.819Z,4344.00
2023-12-04T11:02:12.878Z,4416.00
2023-12-04T11:03:12.789Z,4524.00
2023-12-04T11:04:12.797Z,4660.00
2023-12-04T11:05:12.802Z,4776.00
2023-12-04T11:06:12.787Z,4840.00
2023-12-04T11:07:12.727Z,4824.00
2023-12-04T11:08:17.253Z,4780.00
2023-12-04T11:09:12.743Z,4696.00
2023-12-04T11:10:12.676Z,4592.00
2023-12-04T11:11:12.699Z,4500.00
2023-12-04T11:12:12.821Z,4448.00
2023-12-04T11:13:12.719Z,4452.00
2023-12-04T11:14:12.624Z,4492.00
2023-12-04T11:15:12.656Z,4556.00
2023-12-04T11:16:12.595Z,4636.00
2023-12-04T11:17:12.611Z,4708.00
2023-12-04T11:18:12.635Z,4764.00
2023-12-04T11:19:12.700Z,4784.00
2023-12-04T11:20:12.561Z,4752.00
2023-12-04T11:21:12.819Z,4684.00
2023-12-04T11:22:12.536Z,4612.00
2023-12-04T11:23:12.530Z,4548.00
2023-12-04T11:24:12.553Z,4532.00
2023-12-04T11:25:12.536Z,4612.00
2023-12-04T11:26:12.505Z,4756.00
2023-12-04T11:27:12.524Z,4928.00
2023-12-04T11:28:12.495Z,5116.00
2023-12-04T11:29:12.464Z,5276.00
2023-12-04T11:30:13.854Z,5376.00
2023-12-04T11:31:12.474Z,5432.00
2023-12-04T11:32:12.426Z,5404.00
2023-12-04T11:33:12.687Z,5296.00
2023-12-04T11:34:12.464Z,5160.00
2023-12-04T11:35:12.394Z,5044.00
2023-12-04T11:36:13.634Z,4952.00
2023-12-04T11:37:12.404Z,4896.00
2023-12-04T11:38:12.373Z,4888.00
2023-12-04T11:39:12.525Z,4984.00
2023-12-04T11:40:12.339Z,5104.00
2023-12-04T11:41:12.332Z,5220.00
2023-12-04T11:42:12.351Z,5324.00
2023-12-04T11:43:12.334Z,5380.00
2023-12-04T11:44:12.297Z,5372.00
2023-12-04T11:45:12.297Z,5384.00
2023-12-04T11:46:12.388Z,5460.00
2023-12-04T11:47:12.272Z,5540.00
2023-12-04T11:48:12.307Z,5592.00
2023-12-04T11:49:12.353Z,5600.00
2023-12-04T11:50:12.226Z,5588.00
2023-12-04T11:51:12.247Z,5560.00
2023-12-04T11:52:12.216Z,5508.00
2023-12-04T11:53:12.222Z,5468.00
2023-12-04T11:54:12.215Z,5444.00
2023-12-04T11:55:12.205Z,5444.00
2023-12-04T11:56:12.205Z,5480.00
2023-12-04T11:57:12.209Z,5532.00
2023-12-04T11:58:12.150Z,5568.00
2023-12-04T11:59:12.161Z,5580.00
2023-12-04T12:00:12.141Z,5588.00
2023-12-04T12:01:12.138Z,5612.00
2023-12-04T12:02:12.457Z,5640.00
2023-12-04T12:03:18.423Z,5656.00
2023-12-04T12:04:12.197Z,5688.00
2023-12-04T12:05:12.212Z,5712.00
2023-12-04T12:06:12.344Z,5712.00
2023-12-04T12:07:12.119Z,5640.00
2023-12-04T12:08:12.055Z,5516.00
2023-12-04T12:09:12.028Z,5424.00
2023-12-04T12:10:12.014Z,5400.00
2023-12-04T12:11:12.035Z,5420.00
2023-12-04T12:12:12.023Z,5472.00
2023-12-04T12:13:11.976Z,5484.00
2023-12-04T12:14:12.036Z,5484.00
2023-12-04T12:15:11.970Z,5444.00
2023-12-04T12:16:11.954Z,5408.00
2023-12-04T12:17:11.932Z,5384.00
2023-12-04T12:18:12.325Z,5388.00
2023-12-04T12:19:12.038Z,5432.00
2023-12-04T12:20:12.537Z,5484.00
2023-12-04T12:21:11.914Z,5524.00
2023-12-04T12:22:11.884Z,5528.00
2023-12-04T12:23:12.560Z,5476.00
2023-12-04T12:24:11.889Z,5380.00
2023-12-04T12:25:11.877Z,5244.00
2023-12-04T12:26:11.845Z,5052.00
2023-12-04T12:27:11.864Z,4880.00
2023-12-04T12:28:11.822Z,4736.00
2023-12-04T12:29:11.814Z,4664.00
2023-12-04T12:30:11.835Z,4628.00
2023-12-04T12:31:11.835Z,4656.00
2023-12-04T12:32:11.781Z,4720.00
2023-12-04T12:33:11.858Z,4796.00
2023-12-04T12:34:11.892Z,4884.00
2023-12-04T12:35:11.767Z,4948.00
2023-12-04T12:36:11.851Z,5012.00
2023-12-04T12:37:11.722Z,5068.00
2023-12-04T12:38:11.708Z,5096.00
2023-12-04T12:39:11.746Z,5060.00
2023-12-04T12:40:11.705Z,5056.00
2023-12-04T12:41:11.698Z,5100.00
2023-12-04T12:42:11.675Z,5152.00
2023-12-04T12:43:11.657Z,5204.00
2023-12-04T12:44:11.665Z,5264.00
2023-12-04T12:45:11.663Z,5388.00
2023-12-04T12:46:11.638Z,5584.00
2023-12-04T12:47:11.604Z,5768.00